createdAt,value
2022-11-04T00:02:07.833Z,13.11
2022-11-04T00:04:34.870Z,12.98
2022-11-04T00:07:01.708Z,13.05
2022-11-04T00:09:30.541Z,12.96
2022-11-04T00:12:16.959Z,13.01
2022-11-04T00:14:44.091Z,12.97
2022-11-04T00:17:22.688Z,12.95
2022-11-04T00:20:30.316Z,13.08
2022-11-04T00:23:15.927Z,13.03
2022-11-04T00:26:01.145Z,13.07
2022-11-04T00:28:43.098Z,13.10
2022-11-04T00:31:29.384Z,13.13
2022-11-04T00:33:58.798Z,13.11
2022-11-04T00:36:26.486Z,13.12
2022-11-04T00:38:53.789Z,13.16
2022-11-04T00:41:27.231Z,13.14
2022-11-04T00:43:57.448Z,13.09
2022-11-04T00:46:24.617Z,13.04
2022-11-04T00:48:51.433Z,12.95
2022-11-04T00:51:18.395Z,12.93
2022-11-04T00:53:45.878Z,13.01
2022-11-04T00:56:12.746Z,12.92
2022-11-04T00:58:39.557Z,12.98
2022-11-04T01:01:17.677Z,13.01
2022-11-04T01:03:46.660Z,12.96
2022-11-04T01:06:13.494Z,13.00
2022-11-04T01:08:40.727Z,12.98
2022-11-04T01:11:09.611Z,13.01
2022-11-04T01:13:37.481Z,13.01
2022-11-04T01:16:10.385Z,12.96
2022-11-04T01:18:37.887Z,12.92
2022-11-04T01:21:07.749Z,12.95
2022-11-04T01:23:35.582Z,12.94
2022-11-04T01:26:09.734Z,12.96
2022-11-04T01:28:36.760Z,12.92
2022-11-04T01:31:16.563Z,12.87
2022-11-04T01:33:44.053Z,12.92
2022-11-04T01:36:11.616Z,12.94
2022-11-04T01:38:38.556Z,12.90
2022-11-04T01:41:06.528Z,12.94
2022-11-04T01:44:01.617Z,12.91
2022-11-04T01:46:37.984Z,12.90
2022-11-04T01:49:21.724Z,12.89
2022-11-04T01:51:52.069Z,12.92
2022-11-04T01:54:19.242Z,12.88
2022-11-04T01:56:48.052Z,12.89
2022-11-04T01:59:30.454Z,12.86
2022-11-04T02:01:57.391Z,12.83
2022-11-04T02:04:27.171Z,12.86
2022-11-04T02:07:00.281Z,12.87
2022-11-04T02:09:32.122Z,12.86
2022-11-04T02:12:17.198Z,12.83
2022-11-04T02:14:46.462Z,12.86
2022-11-04T02:17:19.033Z,12.88
2022-11-04T02:20:22.548Z,12.85
2022-11-04T02:23:30.604Z,12.83
2022-11-04T02:26:48.638Z,12.85
2022-11-04T02:29:40.018Z,12.81
2022-11-04T02:32:17.259Z,12.81
2022-11-04T02:35:00.135Z,12.74
2022-11-04T02:37:38.099Z,12.77
2022-11-04T02:40:13.612Z,12.75
2022-11-04T02:42:58.224Z,12.74
2022-11-04T02:45:41.086Z,12.67
2022-11-04T02:48:19.652Z,12.73
2022-11-04T02:51:16.359Z,12.68
2022-11-04T02:53:56.566Z,12.65
2022-11-04T02:56:24.302Z,12.64
2022-11-04T02:59:06.514Z,12.57
2022-11-04T03:01:41.851Z,12.59
2022-11-04T03:04:21.405Z,12.54
2022-11-04T03:06:51.090Z,12.63
2022-11-04T03:09:22.210Z,12.62
2022-11-04T03:11:55.715Z,12.62
2022-11-04T03:14:42.384Z,12.58
2022-11-04T03:17:42.068Z,12.56
2022-11-04T03:20:25.715Z,12.53
2022-11-04T03:22:55.704Z,12.54
2022-11-04T03:25:37.995Z,12.57
2022-11-04T03:28:31.757Z,12.54
2022-11-04T03:31:03.429Z,12.53
2022-11-04T03:33:47.855Z,12.48
2022-11-04T03:36:15.040Z,12.50
2022-11-04T03:38:42.101Z,12.48
2022-11-04T03:41:30.887Z,12.46
2022-11-04T03:43:57.923Z,12.36
2022-11-04T03:46:25.402Z,12.36
2022-11-04T03:48:53.575Z,12.37
2022-11-04T03:51:20.536Z,12.31
2022-11-04T03:53:48.073Z,12.36
2022-11-04T03:56:25.247Z,12.38
2022-11-04T03:59:29.288Z,12.38
2022-11-04T04:02:16.295Z,12.38
2022-11-04T04:05:18.825Z,12.33
2022-11-04T04:07:55.890Z,12.31
2022-11-04T04:10:51.904Z,12.26
2022-11-04T04:13:43.298Z,12.25
2022-11-04T04:16:22.100Z,12.22
2022-11-04T04:18:58.850Z,12.29
2022-11-04T04:21:46.331Z,12.19
2022-11-04T04:24:36.994Z,12.16
2022-11-04T04:27:23.196Z,12.13
2022-11-04T04:29:52.697Z,12.19
2022-11-04T04:32:23.008Z,12.16
2022-11-04T04:34:49.880Z,12.15
2022-11-04T04:37:21.840Z,12.08
2022-11-04T04:40:19.487Z,12.03
2022-11-04T04:43:11.744Z,12.07
2022-11-04T04:45:42.717Z,12.05
2022-11-04T04:48:13.208Z,12.01
2022-11-04T04:50:45.255Z,12.03
2022-11-04T04:53:12.476Z,12.03
2022-11-04T04:55:41.781Z,12.02
2022-11-04T04:58:09.722Z,11.96
2022-11-04T05:00:36.529Z,11.93
2022-11-04T05:03:03.393Z,11.96
2022-11-04T05:05:30.183Z,11.90
2022-11-04T05:08:08.298Z,11.87
2022-11-04T05:10:35.507Z,11.87
2022-11-04T05:13:21.186Z,11.85
2022-11-04T05:15:48.036Z,11.81
2022-11-04T05:18:14.908Z,11.89
2022-11-04T05:20:41.745Z,11.80
2022-11-04T05:23:11.963Z,11.89
2022-11-04T05:25:40.654Z,11.81
2022-11-04T05:28:08.907Z,11.83
2022-11-04T05:30:36.420Z,11.85
2022-11-04T05:33:04.999Z,11.84
2022-11-04T05:35:33.295Z,11.83
2022-11-04T05:38:01.389Z,11.83
2022-11-04T05:40:28.190Z,11.75
2022-11-04T05:42:59.178Z,11.74
2022-11-04T05:45:27.759Z,11.76
2022-11-04T05:48:03.360Z,11.69
2022-11-04T05:50:32.696Z,11.69
2022-11-04T05:53:00.944Z,11.71
2022-11-04T05:55:28.310Z,11.69
2022-11-04T05:57:55.344Z,11.62
2022-11-04T06:00:22.361Z,11.65
2022-11-04T06:02:49.263Z,11.63
2022-11-04T06:05:16.178Z,11.65
2022-11-04T06:07:43.001Z,11.60
2022-11-04T06:10:10.313Z,11.65
2022-11-04T06:12:37.225Z,11.55
2022-11-04T06:15:04.711Z,11.59
2022-11-04T06:17:31.538Z,11.55
2022-11-04T06:19:58.396Z,11.60
2022-11-04T06:22:25.303Z,11.49
2022-11-04T06:24:52.141Z,11.56
2022-11-04T06:27:19.111Z,11.55
2022-11-04T06:29:47.121Z,11.53
2022-11-04T06:32:18.147Z,11.55
2022-11-04T06:34:45.462Z,11.56
2022-11-04T06:37:12.566Z,11.52
2022-11-04T06:39:39.421Z,11.53
2022-11-04T06:42:06.452Z,11.50
2022-11-04T06:44:36.981Z,11.47
2022-11-04T06:47:03.862Z,11.38
2022-11-04T06:49:30.656Z,11.43
2022-11-04T06:51:57.593Z,11.49
2022-11-04T06:54:24.447Z,11.41
2022-11-04T06:56:51.285Z,11.41
2022-11-04T06:59:20.415Z,11.46
2022-11-04T07:01:49.491Z,11.46
2022-11-04T07:04:16.466Z,11.39
2022-11-04T07:06:44.730Z,11.52
2022-11-04T07:09:14.469Z,11.44
2022-11-04T07:11:42.355Z,11.53
2022-11-04T07:14:10.030Z,11.52
2022-11-04T07:16:37.024Z,11.48
2022-11-04T07:19:04.854Z,11.53
2022-11-04T07:21:31.806Z,11.49
2022-11-04T07:23:58.620Z,11.50
2022-11-04T07:26:25.641Z,11.49
2022-11-04T07:28:52.794Z,11.46
2022-11-04T07:31:19.609Z,11.51
2022-11-04T07:33:51.192Z,11.50
2022-11-04T07:36:19.299Z,11.49
2022-11-04T07:38:47.229Z,11.46
2022-11-04T07:41:14.885Z,11.47
2022-11-04T07:43:42.410Z,11.47
2022-11-04T07:46:12.429Z,11.44
2022-11-04T07:48:39.589Z,11.45
2022-11-04T07:51:09.345Z,11.46
2022-11-04T07:53:36.197Z,11.54
2022-11-04T07:56:08.132Z,11.57
2022-11-04T07:58:35.256Z,11.61
2022-11-04T08:01:13.376Z,11.57
2022-11-04T08:03:40.340Z,11.64
2022-11-04T08:06:10.956Z,11.62
2022-11-04T08:08:38.158Z,11.49
2022-11-04T08:11:14.264Z,11.64
2022-11-04T08:13:44.188Z,11.55
2022-11-04T08:16:14.586Z,11.61
2022-11-04T08:18:42.909Z,11.59
2022-11-04T08:21:11.039Z,11.61
2022-11-04T08:23:38.512Z,11.64
2022-11-04T08:26:15.542Z,11.70
2022-11-04T08:28:42.400Z,11.58
2022-11-04T08:31:25.273Z,11.77
2022-11-04T08:33:54.164Z,11.80
2022-11-04T08:36:26.105Z,11.73
2022-11-04T08:38:53.781Z,11.87
2022-11-04T08:41:29.015Z,11.91
2022-11-04T08:43:57.096Z,11.96
2022-11-04T08:46:23.919Z,11.99
2022-11-04T08:48:50.768Z,11.96
2022-11-04T08:51:22.814Z,12.00
2022-11-04T08:53:49.842Z,12.04
2022-11-04T08:56:24.228Z,12.04
2022-11-04T08:58:51.652Z,12.06
2022-11-04T09:01:19.342Z,12.05
2022-11-04T09:03:47.129Z,12.07
2022-11-04T09:06:20.305Z,12.02
2022-11-04T09:08:47.977Z,12.09
2022-11-04T09:11:17.141Z,12.16
2022-11-04T09:13:44.365Z,12.19
2022-11-04T09:16:13.580Z,12.21
2022-11-04T09:18:40.659Z,11.89
2022-11-04T09:21:09.297Z,12.17
2022-11-04T09:23:36.755Z,12.25
2022-11-04T09:26:14.162Z,12.28
2022-11-04T09:28:41.681Z,12.20
2022-11-04T09:31:15.663Z,12.28
2022-11-04T09:33:43.348Z,12.25
2022-11-04T09:36:11.631Z,12.35
2022-11-04T09:38:41.175Z,12.39
2022-11-04T09:41:52.651Z,12.44
2022-11-04T09:45:20.153Z,12.46
2022-11-04T09:47:40.984Z,12.49
2022-11-04T09:50:14.469Z,12.53
2022-11-04T09:52:49.693Z,12.53
2022-11-04T09:55:42.082Z,12.57
2022-11-04T09:58:13.669Z,12.58
2022-11-04T10:00:45.192Z,12.60
2022-11-04T10:04:10.786Z,12.62
2022-11-04T10:07:01.494Z,12.67
2022-11-04T10:10:05.022Z,12.70
2022-11-04T10:12:49.925Z,12.72
2022-11-04T10:15:41.091Z,12.74
2022-11-04T10:19:00.292Z,12.77
2022-11-04T10:21:47.590Z,12.79
2022-11-04T10:25:01.678Z,12.79
2022-11-04T10:27:37.438Z,12.78
2022-11-04T10:30:14.088Z,12.87
2022-11-04T10:32:53.933Z,12.84
2022-11-04T10:35:37.241Z,12.88
2022-11-04T10:38:36.740Z,12.91
2022-11-04T10:41:15.542Z,12.93
2022-11-04T10:43:43.008Z,12.96
2022-11-04T10:46:54.971Z,12.97
2022-11-04T10:49:39.459Z,13.00
2022-11-04T10:52:08.119Z,13.02
2022-11-04T10:54:42.159Z,13.01
2022-11-04T10:57:10.895Z,13.02
2022-11-04T11:00:00.669Z,13.11
2022-11-04T11:02:47.756Z,13.14
2022-11-04T11:05:17.268Z,13.11
2022-11-04T11:07:50.372Z,13.13
2022-11-04T11:10:28.632Z,13.18
2022-11-04T11:13:08.042Z,13.17
2022-11-04T11:15:38.367Z,13.23
2022-11-04T11:18:08.242Z,13.20
2022-11-04T11:20:37.828Z,13.18
2022-11-04T11:23:09.732Z,13.21
2022-11-04T11:25:49.943Z,13.29
2022-11-04T11:28:25.696Z,13.31
2022-11-04T11:31:00.940Z,13.29
2022-11-04T11:33:38.370Z,13.35
2022-11-04T11:36:17.248Z,13.29
2022-11-04T11:39:03.524Z,13.30
2022-11-04T11:41:34.140Z,13.33
2022-11-04T11:44:18.544Z,13.25
2022-11-04T11:46:57.647Z,13.33
2022-11-04T11:49:30.367Z,13.28
2022-11-04T11:52:32.091Z,13.36
2022-11-04T11:55:12.305Z,13.33
2022-11-04T12:01:19.324Z,13.39
2022-11-04T12:10:44.585Z,13.43
2022-11-04T12:13:29.093Z,13.44
2022-11-04T12:16:29.793Z,13.44
2022-11-04T12:19:37.843Z,13.44
2022-11-04T12:22:49.013Z,13.45
2022-11-04T12:26:01.747Z,13.47
2022-11-04T12:28:49.731Z,13.49
2022-11-04T12:31:29.384Z,13.36
2022-11-04T12:34:11.031Z,13.49
2022-11-04T12:36:52.986Z,13.53
2022-11-04T12:40:07.067Z,13.53
2022-11-04T12:43:04.551Z,13.54
2022-11-04T12:45:53.205Z,13.57
2022-11-04T12:48:54.340Z,13.55
2022-11-04T12:51:51.266Z,13.58
2022-11-04T12:54:50.720Z,13.53
2022-11-04T12:57:35.914Z,13.60
2022-11-04T13:00:14.351Z,13.54
2022-11-04T13:02:59.068Z,13.61
2022-11-04T13:05:44.879Z,13.65
2022-11-04T13:08:33.219Z,13.50
2022-11-04T13:11:27.091Z,13.65
2022-11-04T13:14:02.101Z,13.62
2022-11-04T13:16:31.862Z,13.67
2022-11-04T13:18:59.164Z,13.66
2022-11-04T13:21:33.154Z,13.64
2022-11-04T13:24:15.274Z,13.67
2022-11-04T13:26:42.298Z,13.66
2022-11-04T13:29:16.375Z,13.69
2022-11-04T13:32:07.841Z,13.64
2022-11-04T13:35:24.045Z,13.66
2022-11-04T13:38:08.741Z,13.73
2022-11-04T13:40:57.949Z,13.71
2022-11-04T13:43:39.958Z,13.71
2022-11-04T13:46:18.240Z,13.77
2022-11-04T13:49:12.875Z,13.78
2022-11-04T13:51:44.418Z,13.80
2022-11-04T13:54:45.290Z,13.76
2022-11-04T13:57:16.232Z,13.73
2022-11-04T14:00:06.694Z,13.79
2022-11-04T14:02:45.708Z,13.77
2022-11-04T14:05:28.153Z,13.82
2022-11-04T14:08:03.492Z,13.83
2022-11-04T14:10:59.182Z,13.77
2022-11-04T14:13:29.665Z,13.84
2022-11-04T14:16:17.778Z,13.83
2022-11-04T14:18:48.223Z,13.85
2022-11-04T14:21:18.488Z,13.85
2022-11-04T14:23:55.229Z,13.87
2022-11-04T14:26:28.126Z,13.87
2022-11-04T14:29:22.763Z,13.79
2022-11-04T14:31:55.747Z,13.83
2022-11-04T14:34:30.939Z,13.81
2022-11-04T14:37:19.752Z,13.87
2022-11-04T14:39:57.302Z,13.88
2022-11-04T14:42:57.715Z,13.86
2022-11-04T14:45:30.803Z,13.81
2022-11-04T14:48:16.332Z,13.58
2022-11-04T14:50:49.691Z,13.48
2022-11-04T14:53:40.167Z,13.39
2022-11-04T14:56:23.745Z,13.34
2022-11-04T14:59:05.489Z,13.19
2022-11-04T15:01:39.396Z,13.17
2022-11-04T15:04:18.466Z,13.14
2022-11-04T15:07:01.248Z,13.10
2022-11-04T15:09:30.887Z,13.18
2022-11-04T15:12:31.353Z,13.17
2022-11-04T15:14:59.918Z,13.12
2022-11-04T15:17:31.867Z,13.11
2022-11-04T15:20:02.097Z,13.17
2022-11-04T15:22:30.427Z,13.19
2022-11-04T15:25:02.917Z,13.21
2022-11-04T15:27:30.633Z,13.16
2022-11-04T15:30:02.756Z,13.18
2022-11-04T15:32:30.042Z,13.19
2022-11-04T15:34:57.412Z,13.19
2022-11-04T15:37:26.489Z,13.15
2022-11-04T15:39:57.872Z,13.23
2022-11-04T15:42:39.932Z,13.18
2022-11-04T15:45:22.150Z,13.16
2022-11-04T15:47:50.757Z,13.08
2022-11-04T15:50:26.101Z,13.03
2022-11-04T15:52:56.020Z,12.90
2022-11-04T15:55:26.710Z,13.07
2022-11-04T15:57:55.045Z,13.03
2022-11-04T16:00:24.964Z,13.02
2022-11-04T16:02:57.959Z,12.98
2022-11-04T16:05:33.168Z,13.01
2022-11-04T16:08:28.551Z,12.95
2022-11-04T16:11:17.959Z,13.00
2022-11-04T16:13:46.023Z,12.97
2022-11-04T16:16:25.246Z,12.93
2022-11-04T16:18:56.030Z,13.02
2022-11-04T16:21:34.239Z,12.93
2022-11-04T16:24:23.969Z,12.73
2022-11-04T16:26:55.327Z,12.57
2022-11-04T16:29:25.522Z,12.41
2022-11-04T16:32:40.017Z,12.56
2022-11-04T16:35:22.042Z,12.61
2022-11-04T16:37:50.846Z,12.50
2022-11-04T16:40:19.396Z,12.51
2022-11-04T16:42:47.677Z,12.64
2022-11-04T16:45:31.033Z,12.67
2022-11-04T16:47:58.776Z,12.69
2022-11-04T16:50:26.108Z,12.71
2022-11-04T16:52:53.893Z,12.67
2022-11-04T16:55:24.477Z,12.72
2022-11-04T16:58:16.751Z,12.71
2022-11-04T17:00:43.851Z,12.52
2022-11-04T17:03:22.744Z,12.57
2022-11-04T17:05:56.428Z,12.62
2022-11-04T17:08:27.084Z,12.54
2022-11-04T17:10:54.244Z,12.60
2022-11-04T17:13:21.231Z,12.56
2022-11-04T17:15:48.324Z,12.52
2022-11-04T17:18:17.354Z,12.56
2022-11-04T17:20:48.397Z,12.43
2022-11-04T17:23:15.942Z,12.57
2022-11-04T17:25:43.489Z,12.58
2022-11-04T17:28:10.365Z,12.56
2022-11-04T17:30:38.883Z,12.57
2022-11-04T17:33:06.717Z,12.60
2022-11-04T17:35:37.698Z,12.55
2022-11-04T17:38:04.710Z,12.62
2022-11-04T17:40:31.605Z,12.43
2022-11-04T17:43:17.258Z,12.63
2022-11-04T17:45:44.540Z,12.63
2022-11-04T17:48:13.990Z,12.56
2022-11-04T17:50:42.207Z,12.52
2022-11-04T17:53:09.321Z,12.58
2022-11-04T17:55:40.676Z,12.65
2022-11-04T17:58:07.603Z,12.51
2022-11-04T18:00:34.443Z,12.63
2022-11-04T18:03:01.267Z,12.64
2022-11-04T18:05:29.180Z,12.57
2022-11-04T18:07:58.258Z,12.58
2022-11-04T18:10:25.175Z,12.56
2022-11-04T18:12:52.744Z,12.64
2022-11-04T18:15:19.620Z,12.56
2022-11-04T18:17:46.875Z,12.57
2022-11-04T18:20:15.412Z,12.63
2022-11-04T18:22:43.517Z,12.63
2022-11-04T18:25:11.795Z,12.63
2022-11-04T18:27:38.591Z,12.59
2022-11-04T18:30:06.388Z,12.56
2022-11-04T18:32:33.643Z,12.51
2022-11-04T18:35:00.488Z,12.58
2022-11-04T18:37:29.060Z,12.52
2022-11-04T18:39:55.873Z,12.52
2022-11-04T18:42:23.195Z,12.55
2022-11-04T18:44:50.162Z,12.57
2022-11-04T18:47:17.908Z,12.54
2022-11-04T18:49:46.542Z,12.58
2022-11-04T18:52:13.403Z,12.57
2022-11-04T18:54:42.832Z,12.53
2022-11-04T18:57:11.843Z,12.51
2022-11-04T18:59:38.773Z,12.58
2022-11-04T19:02:06.883Z,12.48
2022-11-04T19:04:33.856Z,12.51
2022-11-04T19:07:00.746Z,12.35
2022-11-04T19:09:57.454Z,12.31
2022-11-04T19:12:33.087Z,12.28
2022-11-04T19:14:59.903Z,12.27
2022-11-04T19:17:26.692Z,12.31
2022-11-04T19:19:53.512Z,12.30
2022-11-04T19:22:20.285Z,12.34
2022-11-04T19:24:47.125Z,12.27
2022-11-04T19:27:14.404Z,12.27
2022-11-04T19:29:41.195Z,12.31
2022-11-04T19:32:13.851Z,12.32
2022-11-04T19:34:41.976Z,12.38
2022-11-04T19:37:09.378Z,12.33
2022-11-04T19:39:36.700Z,12.27
2022-11-04T19:42:22.551Z,12.33
2022-11-04T19:44:49.377Z,12.27
2022-11-04T19:47:16.270Z,12.35
2022-11-04T19:49:43.145Z,12.38
2022-11-04T19:52:09.998Z,12.37
2022-11-04T19:54:36.910Z,12.42
2022-11-04T19:57:03.812Z,12.18
2022-11-04T19:59:30.652Z,12.40
2022-11-04T20:01:57.521Z,12.41
2022-11-04T20:04:24.775Z,12.32
2022-11-04T20:06:51.543Z,12.36
2022-11-04T20:09:18.512Z,12.26
2022-11-04T20:12:03.920Z,12.38
2022-11-04T20:14:30.703Z,12.36
2022-11-04T20:16:57.520Z,12.38
2022-11-04T20:19:24.422Z,12.35
2022-11-04T20:21:51.221Z,12.36
2022-11-04T20:24:18.153Z,12.27
2022-11-04T20:26:46.855Z,12.31
2022-11-04T20:29:16.055Z,12.37
2022-11-04T20:31:43.836Z,12.31
2022-11-04T20:34:12.307Z,12.38
2022-11-04T20:36:39.603Z,12.38
2022-11-04T20:39:17.898Z,12.35
2022-11-04T20:41:45.676Z,12.34
2022-11-04T20:44:14.984Z,12.29
2022-11-04T20:46:43.254Z,12.32
2022-11-04T20:49:10.403Z,12.31
2022-11-04T20:51:42.182Z,12.33
2022-11-04T20:54:12.305Z,12.36
2022-11-04T20:56:41.353Z,12.35
2022-11-04T20:59:11.836Z,12.31
2022-11-04T21:01:42.486Z,12.34
2022-11-04T21:04:14.978Z,12.26
2022-11-04T21:06:42.372Z,12.30
2022-11-04T21:09:13.421Z,12.30
2022-11-04T21:11:40.767Z,12.25
2022-11-04T21:14:11.573Z,12.31
2022-11-04T21:16:38.368Z,12.27
2022-11-04T21:19:05.670Z,12.25
2022-11-04T21:21:33.249Z,12.21
2022-11-04T21:24:05.862Z,12.14
2022-11-04T21:26:35.077Z,12.13
2022-11-04T21:29:05.958Z,12.05
2022-11-04T21:31:35.115Z,12.12
2022-11-04T21:34:03.572Z,12.15
2022-11-04T21:36:30.934Z,12.02
2022-11-04T21:38:58.995Z,12.14
2022-11-04T21:41:29.194Z,12.09
2022-11-04T21:43:58.081Z,12.12
2022-11-04T21:46:25.971Z,12.09
2022-11-04T21:48:53.334Z,12.09
2022-11-04T21:51:24.218Z,12.08
2022-11-04T21:53:51.396Z,12.00
2022-11-04T21:56:24.807Z,12.03
2022-11-04T21:58:54.312Z,11.99
2022-11-04T22:01:24.908Z,12.03
2022-11-04T22:03:59.318Z,12.01
2022-11-04T22:06:34.766Z,11.94
2022-11-04T22:09:05.473Z,11.98
2022-11-04T22:11:36.292Z,11.96
2022-11-04T22:14:05.958Z,11.99
2022-11-04T22:16:37.767Z,11.96
2022-11-04T22:19:08.209Z,11.99
2022-11-04T22:21:38.824Z,11.96
2022-11-04T22:24:05.987Z,11.89
2022-11-04T22:26:33.261Z,11.94
2022-11-04T22:29:00.371Z,11.96
2022-11-04T22:31:34.296Z,11.92
2022-11-04T22:34:02.155Z,11.88
2022-11-04T22:36:30.433Z,11.88
2022-11-04T22:38:58.033Z,11.87
2022-11-04T22:41:30.413Z,11.69
2022-11-04T22:43:58.098Z,11.84
2022-11-04T22:46:31.278Z,11.81
2022-11-04T22:48:59.588Z,11.79
2022-11-04T22:51:26.448Z,11.77
2022-11-04T22:53:58.939Z,11.82
2022-11-04T22:56:28.390Z,11.76
2022-11-04T22:58:55.250Z,11.69
2022-11-04T23:01:22.687Z,11.80
2022-11-04T23:03:51.990Z,11.80
2022-11-04T23:06:19.173Z,11.76
2022-11-04T23:08:46.049Z,11.75
2022-11-04T23:11:38.890Z,11.84
2022-11-04T23:14:24.503Z,11.81
2022-11-04T23:17:10.831Z,11.78
2022-11-04T23:19:38.935Z,11.76
2022-11-04T23:22:25.730Z,11.74
2022-11-04T23:25:06.201Z,11.74
2022-11-04T23:27:53.496Z,11.79
2022-11-04T23:30:21.517Z,11.79
2022-11-04T23:32:53.824Z,11.82
2022-11-04T23:35:45.693Z,11.81
2022-11-04T23:38:12.702Z,11.81
2022-11-04T23:40:39.642Z,11.76
2022-11-04T23:43:06.540Z,11.72
2022-11-04T23:45:51.892Z,11.87
2022-11-04T23:48:37.287Z,11.83
2022-11-04T23:51:22.977Z,11.76
2022-11-04T23:54:08.379Z,11.79
2022-11-04T23:56:53.767Z,11.73
2022-11-04T23:59:38.979Z,11.76
